Pagina principale
METAR-TAF:

METAR-TAF

Aeroporti :

Laupheim, Germania

latitudine: 48-13N, longitudine: 009-55E, altezza: 538 m

Osservazione

Il bollettino è stato emesso 1 ora e 22 minuti fa, alle 16:20 UTC
Vento 3 kt da ovest/sud-ovest
Temperature 18°C
Umidità 39%
Pressione 1016 hPa
Visibilità 10 km o più
Poco nuvoloso ad un'altezza di 4000 ft
Nubi sparse ad un'altezza di 30000 ft

METAR: ETHL 131620Z 25003KT 9999 FEW040 SCT300 18/04 Q1016 BLU+

Ora: 19:42 (17:42 UTC)

Previsione

Il bollettino è stato emesso 4 ore e 35 minuti fa, alle 13:07 UTC
Previsione valida dal 13 alle 14 UTC al 13 alle 23 UTC
Vento 3 kt da direzioni variabili
Visibilità 10 km o più
Nubi sparse ad un'altezza di 4000 ft
Nubi sparse ad un'altezza di 8000 ft

TAF: ETHL 131307Z 1314/1323 VRB03KT 9999 NSW SCT040 SCT080

Osservazioni e previsioni meteorologiche di più di 4000 aeroporti (messaggi METAR e TAF).

Le stazioni disponibili sono rappresentate dai dischi gialli e rossi sulla carta.

Puntare il mouse per vedere il nome della stazione.

Clicca sopra per visualizzare le osservazioni e previsioni meteorologiche.

Per cambiare la mappa : fare clic sui pulsanti verdi con una croce nera per ingrandire, il pulsante verde con un trattino per diminuire, o sulla freccia verde per le mappe adiacenti.


METAR-TAF: